Date,TemperatureHighF,TemperatureAvgF,TemperatureLowF,DewpointHighF,DewpointAvgF,DewpointLowF,HumidityHigh,HumidityAvg,HumidityLow,PressureMaxIn,PressureMinIn,WindSpeedMaxMPH,WindSpeedAvgMPH,GustSpeedMaxMPH,PrecipitationSumIn
2013-9-1,83,69,60,62,58,50,100,71,38,63.06,40.00,15,1,17,0.00
2013-9-2,86,68,53,57,53,48,96,63,32,63.06,40.00,9,1,18,0.00
2013-9-3,87,71,59,58,55,52,89,61,32,63.06,40.00,11,1,19,0.00
2013-9-4,89,71,58,59,56,54,92,63,31,63.06,40.00,12,1,25,0.00
2013-9-5,90,72,58,58,54,49,93,60,27,63.06,40.00,8,1,21,0.00
2013-9-6,86,70,57,57,52,47,88,57,27,63.06,40.00,9,1,19,0.00
2013-9-7,83,76,59,53,51,46,68,43,34,63.06,40.00,8,1,12,0.00
2013-9-8,85,75,53,52,45,38,92,39,25,63.06,40.00,10,3,17,0.00
2013-9-9,84,73,57,56,50,45,92,52,27,63.06,40.00,10,2,18,0.00
2013-9-10,78,70,59,53,46,44,80,43,31,63.06,40.00,10,2,19,0.00
2013-9-11,80,74,50,45,42,39,79,35,24,63.06,40.00,10,3,17,0.00
2013-9-12,80,62,49,46,41,38,71,51,24,63.06,40.00,12,1,15,0.00
2013-9-13,88,73,47,40,36,29,59,30,16,63.06,40.00,13,1,14,0.00
2013-9-14,51,50,50,42,42,41,73,72,70,63.06,40.00,0,0,0,0.00
2013-9-15,88,78,51,44,41,37,64,28,20,63.06,40.00,10,2,19,0.00
2013-9-16,86,75,53,42,40,38,66,31,20,63.06,40.00,10,2,18,0.00
2013-9-17,77,71,60,40,36,31,34,28,24,63.06,40.00,17,4,22,0.00
2013-9-18,77,70,54,34,30,24,37,23,17,63.06,40.00,13,2,14,0.00
2013-9-19,84,67,42,39,34,27,84,37,13,63.06,40.00,4,0,0,0.00
2013-9-20,77,70,48,50,44,34,62,39,25,63.06,40.00,14,3,20,0.00
2013-9-21,55,50,47,33,22,15,57,35,21,63.06,40.00,3,0,0,0.00
2013-9-22,66,52,38,43,30,24,98,48,23,63.06,40.00,12,2,15,0.00
2013-9-23,77,59,46,39,32,27,69,40,16,63.06,40.00,13,2,15,0.00
2013-9-24,76,55,42,38,34,30,74,48,22,63.06,40.00,12,1,17,0.00
2013-9-25,68,55,45,47,37,28,95,54,33,63.06,40.00,16,2,31,0.00
2013-9-26,59,45,34,43,33,16,98,70,19,63.06,40.00,15,1,22,0.00
2013-9-27,62,48,31,31,23,16,95,41,21,63.06,40.00,16,3,22,0.00
2013-9-28,72,51,31,33,24,16,72,41,16,63.06,40.00,9,1,13,0.00
2013-9-29,80,55,35,32,26,20,65,39,13,63.06,40.00,10,1,15,0.00
2013-9-30,81,56,36,39,29,20,74,40,15,63.06,40.00,9,1,13,0.00